ADDS METAR Data INFO
IDs: Format: Raw Decoded Include TAF

Data at: 0045 UTC 22 Oct 2017

KCXP 220035Z AUTO 28008KT 10SM CLR 16/03 A3026 RMK AO2
KCXP 220015Z AUTO 33007KT 10SM CLR 17/02 A3025 RMK AO2
KCXP 212355Z AUTO 30008KT 10SM CLR 17/02 A3025 RMK AO2
KCXP 212335Z AUTO 33009KT 10SM CLR 17/02 A3025 RMK AO2
KCXP 212315Z AUTO 35010KT 10SM CLR 17/02 A3024 RMK AO2
KCXP 212255Z AUTO 33006KT 10SM CLR 17/02 A3024 RMK AO2
KCXP 212235Z AUTO 25004KT 10SM CLR 18/01 A3023 RMK AO2
KCXP 212215Z AUTO 00000KT 10SM CLR 17/00 A3023 RMK AO2
KCXP 212155Z AUTO 00000KT 10SM CLR 18/00 A3023 RMK AO2
KCXP 212135Z AUTO 00000KT 10SM CLR 16/00 A3023 RMK AO2
KCXP 212115Z AUTO 00000KT 10SM FEW110 16/00 A3024 RMK AO2
KCXP 212055Z AUTO 04004KT 10SM CLR 16/00 A3025 RMK AO2
KCXP 212035Z AUTO 00000KT 10SM CLR 15/M02 A3026 RMK AO2
KCXP 212015Z AUTO 08003KT 10SM CLR 14/M03 A3026 RMK AO2
KCXP 211955Z AUTO 03003KT 10SM CLR 14/M04 A3026 RMK AO2
KCXP 211935Z AUTO 10003KT 10SM CLR 13/M04 A3027 RMK AO2
KCXP 211915Z AUTO 26003KT 10SM CLR 12/M05 A3027 RMK AO2
KCXP 211855Z AUTO 30003KT 10SM CLR 10/M05 A3027 RMK AO2
KCXP 211835Z AUTO 26003KT 10SM CLR 09/M05 A3027 RMK AO2
KCXP 211815Z AUTO 00000KT 10SM FEW012 08/M03 A3027 RMK AO2
KCXP 211755Z AUTO 31004KT 10SM FEW012 07/M04 A3027 RMK AO2
KCXP 211735Z AUTO 00000KT 10SM CLR 06/M04 A3027 RMK AO2
KCXP 211715Z AUTO 00000KT 10SM CLR 05/M03 A3027 RMK AO2
KCXP 211655Z AUTO 00000KT 10SM CLR 04/M03 A3027 RMK AO2
KCXP 211635Z AUTO 00000KT 10SM CLR 04/M03 A3027 RMK AO2
KCXP 211615Z AUTO 00000KT 10SM CLR 02/M03 A3027 RMK AO2
KCXP 211555Z AUTO 00000KT 10SM CLR 02/M03 A3026 RMK AO2
KCXP 211535Z AUTO 00000KT 10SM CLR 00/M03 A3025 RMK AO2
KCXP 211515Z AUTO 00000KT 10SM CLR 00/M03 A3024 RMK AO2
KCXP 211455Z AUTO 00000KT 10SM CLR M02/M04 A3024 RMK AO2
KCXP 211435Z AUTO 00000KT 10SM CLR M02/M04 A3023 RMK AO2
KCXP 211415Z AUTO 31003KT 10SM CLR M02/M04 A3023 RMK AO2
KCXP 211355Z AUTO 27003KT 10SM CLR M02/M04 A3023 RMK AO2
KCXP 211335Z AUTO 00000KT 10SM CLR M02/M04 A3022 RMK AO2
KCXP 211315Z AUTO 00000KT 10SM CLR M03/M04 A3020 RMK AO2
KCXP 211255Z AUTO 00000KT 10SM CLR M03/M05 A3021 RMK AO2
KCXP 211235Z AUTO 09004KT 10SM CLR M03/M05 A3020 RMK AO2
KCXP 211215Z AUTO 00000KT 10SM CLR M02/M04 A3020 RMK AO2
KCXP 211155Z AUTO 00000KT 10SM CLR 00/M04 A3019 RMK AO2
KCXP 211135Z AUTO 32003KT 10SM CLR M02/M04 A3018 RMK AO2
KCXP 211115Z AUTO 00000KT 10SM CLR M01/M04 A3018 RMK AO2
KCXP 211055Z AUTO 00000KT 10SM CLR M01/M04 A3018 RMK AO2
KCXP 211035Z AUTO 00000KT 10SM CLR M01/M04 A3017 RMK AO2
KCXP 211015Z AUTO 00000KT 10SM CLR M02/M04 A3017 RMK AO2
KCXP 210955Z AUTO 00000KT 10SM CLR 00/M04 A3018 RMK AO2
KCXP 210935Z AUTO 00000KT 10SM CLR 00/M04 A3017 RMK AO2
KCXP 210915Z AUTO 00000KT 10SM CLR 00/M04 A3017 RMK AO2
KCXP 210855Z AUTO 00000KT 10SM CLR 00/M04 A3017 RMK AO2
KCXP 210835Z AUTO 00000KT 10SM CLR 00/M04 A3016 RMK AO2
KCXP 210815Z AUTO 00000KT 10SM CLR 00/M03 A3016 RMK AO2
KCXP 210755Z AUTO 00000KT 10SM CLR 00/M04 A3015 RMK AO2
KCXP 210735Z AUTO 00000KT 10SM CLR 00/M04 A3016 RMK AO2
KCXP 210715Z AUTO 00000KT 10SM CLR 02/M03 A3015 RMK AO2
KCXP 210655Z AUTO 00000KT 10SM CLR 02/M03 A3015 RMK AO2
KCXP 210635Z AUTO 00000KT 10SM CLR 03/M03 A3015 RMK AO2
KCXP 210615Z AUTO 00000KT 10SM CLR 02/M04 A3015 RMK AO2
KCXP 210555Z AUTO 00000KT 10SM CLR 02/M03 A3014 RMK AO2
KCXP 210535Z AUTO 32003KT 10SM CLR 03/M03 A3013 RMK AO2
KCXP 210515Z AUTO 00000KT 10SM CLR 03/M03 A3011 RMK AO2
KCXP 210455Z AUTO 00000KT 10SM CLR 03/M03 A3011 RMK AO2
KCXP 210435Z AUTO 10003KT 10SM CLR 03/M04 A3011 RMK AO2
KCXP 210415Z AUTO 27003KT 10SM CLR 04/M04 A3010 RMK AO2
KCXP 210355Z AUTO 35004KT 10SM CLR 04/M03 A3009 RMK AO2
KCXP 210335Z AUTO 00000KT 10SM SCT060 05/M04 A3009 RMK AO2
KCXP 210315Z AUTO 35004KT 10SM OVC060 07/M04 A3008 RMK AO2
KCXP 210255Z AUTO 32003KT 10SM BKN060 06/M04 A3008 RMK AO2
KCXP 210235Z AUTO 26005KT 10SM SCT060 07/M04 A3007 RMK AO2
KCXP 210215Z AUTO 27009KT 10SM OVC060 07/M05 A3007 RMK AO2
KCXP 210155Z AUTO 27010G14KT 10SM OVC060 07/M05 A3006 RMK AO2
KCXP 210135Z AUTO 25006G14KT 10SM SCT060 07/M05 A3005 RMK AO2
KCXP 210115Z AUTO 25008G14KT 10SM CLR 07/M05 A3004 RMK AO2
KCXP 210055Z AUTO 26012G17KT 10SM CLR 08/M05 A3004 RMK AO2
KCXP 210035Z AUTO 27011G16KT 10SM CLR 08/M05 A3004 RMK AO2
KCXP 210015Z AUTO 29009G17KT 10SM CLR 08/M05 A3004 RMK AO2
KCXP 202355Z AUTO 29011G21KT 10SM SCT060 08/M05 A3003 RMK AO2
KCXP 202335Z AUTO 28009G15KT 10SM BKN060 09/M05 A3003 RMK AO2
KCXP 202315Z AUTO 31009G15KT 10SM BKN060 BKN070 09/M05 A3003 RMK AO2
KCXP 202255Z AUTO 29006KT 10SM BKN060 09/M05 A3002 RMK AO2
KCXP 202235Z AUTO 29007KT 290V350 10SM BKN060 09/M05 A3001 RMK AO2
KCXP 202215Z AUTO 33010G17KT 10SM BKN060 09/M05 A3001 RMK AO2
KCXP 202155Z AUTO 28010G15KT 10SM SCT060 09/M05 A3002 RMK AO2
KCXP 202135Z AUTO 25007G14KT 230V300 10SM FEW060 09/M05 A3002 RMK AO2
KCXP 202115Z AUTO 25010G14KT 210V270 10SM CLR 10/M05 A3001 RMK AO2
KCXP 202055Z AUTO 23007G17KT 10SM CLR 10/M05 A3001 RMK AO2
KCXP 202035Z AUTO 24009G15KT 200V270 10SM CLR 10/M05 A3001 RMK AO2
KCXP 202015Z AUTO 24010G15KT 10SM CLR 09/M05 A3001 RMK AO2
KCXP 201955Z AUTO 23007KT 10SM CLR 10/M05 A3001 RMK AO2
KCXP 201935Z AUTO 25007KT 10SM CLR 09/M05 A3001 RMK AO2
KCXP 201915Z AUTO 26008KT 210V290 10SM CLR 09/M05 A3002 RMK AO2
KCXP 201855Z AUTO 26008KT 220V300 10SM CLR 09/M05 A3002 RMK AO2
KCXP 201835Z AUTO 25010G15KT 10SM CLR 09/M05 A3001 RMK AO2
KCXP 201815Z AUTO 22007KT 10SM CLR 08/M05 A3001 RMK AO2
KCXP 201755Z AUTO 26007KT 10SM CLR 08/M05 A3001 RMK AO2
KCXP 201735Z AUTO 23008KT 190V260 10SM CLR 08/M05 A3000 RMK AO2
KCXP 201715Z AUTO 26008KT 230V290 10SM CLR 08/M04 A3000 RMK AO2
KCXP 201655Z AUTO 25007KT 10SM CLR 08/M05 A3000 RMK AO2
KCXP 201635Z AUTO 26008KT 220V280 10SM CLR 07/M04 A2999 RMK AO2
KCXP 201615Z AUTO 24007KT 10SM CLR 07/M04 A2998 RMK AO2
KCXP 201555Z AUTO 27006KT 10SM CLR 07/M04 A2998 RMK AO2
KCXP 201535Z AUTO 26007KT 10SM CLR 06/M04 A2997 RMK AO2
KCXP 201515Z AUTO 27003KT 10SM CLR 05/M03 A2996 RMK AO2
KCXP 201455Z AUTO 30004KT 10SM CLR 04/M01 A2995 RMK AO2
KCXP 201435Z AUTO 26006KT 10SM CLR 04/M02 A2994 RMK AO2
KCXP 201415Z AUTO 27009KT 10SM CLR 05/M05 A2993 RMK AO2
KCXP 201355Z AUTO 04003KT 10SM CLR 04/M03 A2993 RMK AO2
KCXP 201335Z AUTO 31009KT 10SM FEW050 BKN060 05/M01 A2993 RMK AO2
KCXP 201315Z AUTO 30007KT 10SM SCT046 OVC050 05/M02 A2992 RMK AO2
KCXP 201255Z AUTO 07006KT 10SM FEW035 BKN044 OVC055 05/M02 A2992 RMK AO2